< < Back
Terminal Aerodrome Forecast


Current Version              Previous Versions:   1  2  3  4  5  6  7  8  9  

Terminal Aerodrome Forecast

638
FTUS42 KGSP 201100
TAFAND
TAF
KAND 201134Z 2012/2112 00000KT P6SM SCT250
     FM201700 21006KT P6SM FEW210
     FM211000 00000KT P6SM SCT210=



Latest METAR

705
SAUS70 KWBC 201100 RRI
MTRAND
METAR KAND 201056Z AUTO 00000KT 10SM CLR 07/06 A3012 RMK AO2 SLP199
T00720061


USA.gov is the U.S. government's official web portal to all federal, state and local government web resources and services.